sensor_id;sensor_type;location;lat;lon;timestamp;P1;durP1;ratioP1;P2;durP2;ratioP2
9716;SDS011;4897;43.570;27.832;2023-05-27T00:00:08;9.70;;;6.68;;
9716;SDS011;4897;43.570;27.832;2023-05-27T00:02:37;9.95;;;6.55;;
9716;SDS011;4897;43.570;27.832;2023-05-27T00:05:04;13.20;;;6.85;;
9716;SDS011;4897;43.570;27.832;2023-05-27T00:07:32;9.90;;;6.53;;
9716;SDS011;4897;43.570;27.832;2023-05-27T00:10:00;10.93;;;6.47;;
9716;SDS011;4897;43.570;27.832;2023-05-27T00:12:27;7.95;;;6.18;;
9716;SDS011;4897;43.570;27.832;2023-05-27T00:14:54;9.05;;;6.60;;
9716;SDS011;4897;43.570;27.832;2023-05-27T00:17:21;11.73;;;6.32;;
9716;SDS011;4897;43.570;27.832;2023-05-27T00:19:48;11.40;;;6.65;;
9716;SDS011;4897;43.570;27.832;2023-05-27T00:22:15;9.30;;;6.65;;
9716;SDS011;4897;43.570;27.832;2023-05-27T00:24:42;9.85;;;6.75;;
9716;SDS011;4897;43.570;27.832;2023-05-27T00:27:10;10.10;;;6.85;;
9716;SDS011;4897;43.570;27.832;2023-05-27T00:29:37;10.73;;;6.80;;
9716;SDS011;4897;43.570;27.832;2023-05-27T00:32:04;14.57;;;6.72;;
9716;SDS011;4897;43.570;27.832;2023-05-27T00:34:31;9.93;;;5.93;;
9716;SDS011;4897;43.570;27.832;2023-05-27T00:37:02;11.15;;;6.55;;
9716;SDS011;4897;43.570;27.832;2023-05-27T00:39:30;9.60;;;6.60;;
9716;SDS011;4897;43.570;27.832;2023-05-27T00:41:57;7.57;;;5.78;;
9716;SDS011;4897;43.570;27.832;2023-05-27T00:44:26;8.98;;;6.38;;
9716;SDS011;4897;43.570;27.832;2023-05-27T00:46:52;8.75;;;5.97;;
9716;SDS011;4897;43.570;27.832;2023-05-27T00:49:19;8.23;;;6.32;;
9716;SDS011;4897;43.570;27.832;2023-05-27T00:51:46;9.68;;;6.47;;
9716;SDS011;4897;43.570;27.832;2023-05-27T00:54:16;11.27;;;5.95;;
9716;SDS011;4897;43.570;27.832;2023-05-27T00:56:46;7.50;;;5.93;;
9716;SDS011;4897;43.570;27.832;2023-05-27T00:59:13;12.43;;;6.78;;
9716;SDS011;4897;43.570;27.832;2023-05-27T01:01:42;9.30;;;6.50;;
9716;SDS011;4897;43.570;27.832;2023-05-27T01:04:09;10.45;;;6.15;;
9716;SDS011;4897;43.570;27.832;2023-05-27T01:06:40;10.52;;;6.32;;
9716;SDS011;4897;43.570;27.832;2023-05-27T01:09:16;7.47;;;5.97;;
9716;SDS011;4897;43.570;27.832;2023-05-27T01:11:51;9.38;;;6.07;;
9716;SDS011;4897;43.570;27.832;2023-05-27T01:14:26;6.80;;;5.72;;
9716;SDS011;4897;43.570;27.832;2023-05-27T01:16:58;10.85;;;6.53;;
9716;SDS011;4897;43.570;27.832;2023-05-27T01:19:30;11.38;;;6.22;;
9716;SDS011;4897;43.570;27.832;2023-05-27T01:22:00;9.07;;;6.95;;
9716;SDS011;4897;43.570;27.832;2023-05-27T01:24:29;6.68;;;5.97;;
9716;SDS011;4897;43.570;27.832;2023-05-27T01:26:58;10.95;;;6.60;;
9716;SDS011;4897;43.570;27.832;2023-05-27T01:29:28;8.00;;;5.72;;
9716;SDS011;4897;43.570;27.832;2023-05-27T01:31:56;12.88;;;6.75;;
9716;SDS011;4897;43.570;27.832;2023-05-27T01:34:28;11.30;;;6.30;;
9716;SDS011;4897;43.570;27.832;2023-05-27T01:37:02;10.02;;;6.57;;
9716;SDS011;4897;43.570;27.832;2023-05-27T01:39:34;10.18;;;6.97;;
9716;SDS011;4897;43.570;27.832;2023-05-27T01:42:04;9.05;;;6.53;;
9716;SDS011;4897;43.570;27.832;2023-05-27T01:44:31;10.23;;;6.57;;
9716;SDS011;4897;43.570;27.832;2023-05-27T01:46:59;8.07;;;6.72;;
9716;SDS011;4897;43.570;27.832;2023-05-27T01:49:27;8.30;;;6.35;;
9716;SDS011;4897;43.570;27.832;2023-05-27T01:51:54;10.02;;;6.70;;
9716;SDS011;4897;43.570;27.832;2023-05-27T01:54:21;11.88;;;7.03;;
9716;SDS011;4897;43.570;27.832;2023-05-27T01:56:49;9.20;;;6.65;;
9716;SDS011;4897;43.570;27.832;2023-05-27T01:59:16;9.18;;;6.70;;
9716;SDS011;4897;43.570;27.832;2023-05-27T02:01:43;9.52;;;7.00;;
9716;SDS011;4897;43.570;27.832;2023-05-27T02:04:10;9.68;;;7.22;;
9716;SDS011;4897;43.570;27.832;2023-05-27T02:06:37;9.80;;;6.95;;
9716;SDS011;4897;43.570;27.832;2023-05-27T02:09:05;11.27;;;7.40;;
9716;SDS011;4897;43.570;27.832;2023-05-27T02:11:32;9.25;;;6.72;;
9716;SDS011;4897;43.570;27.832;2023-05-27T02:14:00;10.38;;;6.53;;
9716;SDS011;4897;43.570;27.832;2023-05-27T02:16:27;10.07;;;6.75;;
9716;SDS011;4897;43.570;27.832;2023-05-27T02:18:55;9.75;;;6.60;;
9716;SDS011;4897;43.570;27.832;2023-05-27T02:21:22;10.90;;;6.78;;
9716;SDS011;4897;43.570;27.832;2023-05-27T02:23:49;9.00;;;6.72;;
9716;SDS011;4897;43.570;27.832;2023-05-27T02:26:16;10.55;;;7.53;;
9716;SDS011;4897;43.570;27.832;2023-05-27T02:28:43;9.20;;;7.35;;
9716;SDS011;4897;43.570;27.832;2023-05-27T02:31:11;9.38;;;7.30;;
9716;SDS011;4897;43.570;27.832;2023-05-27T02:33:38;8.20;;;6.88;;
9716;SDS011;4897;43.570;27.832;2023-05-27T02:36:05;10.48;;;7.53;;
9716;SDS011;4897;43.570;27.832;2023-05-27T02:38:32;13.48;;;7.18;;
9716;SDS011;4897;43.570;27.832;2023-05-27T02:40:59;12.45;;;7.10;;
9716;SDS011;4897;43.570;27.832;2023-05-27T02:43:26;13.18;;;7.55;;
9716;SDS011;4897;43.570;27.832;2023-05-27T02:45:54;9.07;;;7.07;;
9716;SDS011;4897;43.570;27.832;2023-05-27T02:48:23;10.93;;;7.90;;
9716;SDS011;4897;43.570;27.832;2023-05-27T02:50:49;9.07;;;7.40;;
9716;SDS011;4897;43.570;27.832;2023-05-27T02:53:16;11.63;;;7.00;;
9716;SDS011;4897;43.570;27.832;2023-05-27T02:55:43;14.85;;;7.57;;
9716;SDS011;4897;43.570;27.832;2023-05-27T02:58:10;11.27;;;7.15;;
9716;SDS011;4897;43.570;27.832;2023-05-27T03:00:37;10.70;;;7.20;;
9716;SDS011;4897;43.570;27.832;2023-05-27T03:03:06;9.98;;;7.15;;
9716;SDS011;4897;43.570;27.832;2023-05-27T03:05:34;9.45;;;7.10;;
9716;SDS011;4897;43.570;27.832;2023-05-27T03:08:01;11.68;;;7.35;;
9716;SDS011;4897;43.570;27.832;2023-05-27T03:10:31;10.23;;;7.22;;
9716;SDS011;4897;43.570;27.832;2023-05-27T03:12:58;10.55;;;6.63;;
9716;SDS011;4897;43.570;27.832;2023-05-27T03:15:25;11.90;;;7.30;;
9716;SDS011;4897;43.570;27.832;2023-05-27T03:17:54;10.30;;;6.93;;
9716;SDS011;4897;43.570;27.832;2023-05-27T03:20:20;9.35;;;6.97;;
9716;SDS011;4897;43.570;27.832;2023-05-27T03:22:50;11.07;;;7.00;;
9716;SDS011;4897;43.570;27.832;2023-05-27T03:25:17;7.90;;;6.63;;
9716;SDS011;4897;43.570;27.832;2023-05-27T03:27:44;9.88;;;6.53;;
9716;SDS011;4897;43.570;27.832;2023-05-27T03:30:11;9.02;;;6.97;;
9716;SDS011;4897;43.570;27.832;2023-05-27T03:32:38;8.70;;;6.40;;
9716;SDS011;4897;43.570;27.832;2023-05-27T03:35:05;8.68;;;6.70;;
9716;SDS011;4897;43.570;27.832;2023-05-27T03:37:32;7.35;;;6.22;;
9716;SDS011;4897;43.570;27.832;2023-05-27T03:40:01;9.13;;;6.78;;
9716;SDS011;4897;43.570;27.832;2023-05-27T03:42:28;8.98;;;6.55;;
9716;SDS011;4897;43.570;27.832;2023-05-27T03:44:55;10.00;;;6.22;;
9716;SDS011;4897;43.570;27.832;2023-05-27T03:47:22;10.45;;;6.38;;
9716;SDS011;4897;43.570;27.832;2023-05-27T03:49:49;12.13;;;5.75;;
9716;SDS011;4897;43.570;27.832;2023-05-27T03:52:16;9.98;;;6.40;;
9716;SDS011;4897;43.570;27.832;2023-05-27T03:54:43;8.07;;;5.68;;
9716;SDS011;4897;43.570;27.832;2023-05-27T03:57:11;8.10;;;6.32;;
9716;SDS011;4897;43.570;27.832;2023-05-27T03:59:38;11.90;;;6.05;;
9716;SDS011;4897;43.570;27.832;2023-05-27T04:02:05;9.07;;;5.65;;
9716;SDS011;4897;43.570;27.832;2023-05-27T04:04:32;9.15;;;5.97;;
9716;SDS011;4897;43.570;27.832;2023-05-27T04:06:59;9.45;;;5.78;;
9716;SDS011;4897;43.570;27.832;2023-05-27T04:09:26;7.40;;;5.50;;
9716;SDS011;4897;43.570;27.832;2023-05-27T04:11:53;7.90;;;6.18;;
9716;SDS011;4897;43.570;27.832;2023-05-27T04:14:21;7.30;;;5.78;;
9716;SDS011;4897;43.570;27.832;2023-05-27T04:16:48;7.38;;;5.50;;
9716;SDS011;4897;43.570;27.832;2023-05-27T04:19:15;6.03;;;5.35;;
9716;SDS011;4897;43.570;27.832;2023-05-27T04:21:42;9.20;;;5.75;;
9716;SDS011;4897;43.570;27.832;2023-05-27T04:24:10;8.20;;;5.22;;
9716;SDS011;4897;43.570;27.832;2023-05-27T04:26:37;6.95;;;5.35;;
9716;SDS011;4897;43.570;27.832;2023-05-27T04:29:06;6.97;;;4.95;;
9716;SDS011;4897;43.570;27.832;2023-05-27T04:31:35;9.77;;;5.40;;
9716;SDS011;4897;43.570;27.832;2023-05-27T04:34:03;7.32;;;5.32;;
9716;SDS011;4897;43.570;27.832;2023-05-27T04:36:30;9.77;;;5.13;;
9716;SDS011;4897;43.570;27.832;2023-05-27T04:38:58;6.20;;;4.90;;
9716;SDS011;4897;43.570;27.832;2023-05-27T04:41:26;7.00;;;5.28;;
9716;SDS011;4897;43.570;27.832;2023-05-27T04:43:53;7.07;;;5.28;;
9716;SDS011;4897;43.570;27.832;2023-05-27T04:46:22;8.32;;;5.40;;
9716;SDS011;4897;43.570;27.832;2023-05-27T04:48:51;10.75;;;5.00;;
9716;SDS011;4897;43.570;27.832;2023-05-27T04:51:18;9.90;;;5.63;;
9716;SDS011;4897;43.570;27.832;2023-05-27T04:53:45;7.07;;;5.10;;
9716;SDS011;4897;43.570;27.832;2023-05-27T04:56:14;9.48;;;5.50;;
9716;SDS011;4897;43.570;27.832;2023-05-27T04:58:42;7.18;;;5.32;;
9716;SDS011;4897;43.570;27.832;2023-05-27T05:01:12;8.48;;;5.43;;
9716;SDS011;4897;43.570;27.832;2023-05-27T05:03:43;7.15;;;5.85;;
9716;SDS011;4897;43.570;27.832;2023-05-27T05:06:19;9.35;;;5.30;;
9716;SDS011;4897;43.570;27.832;2023-05-27T05:08:48;8.65;;;4.95;;
9716;SDS011;4897;43.570;27.832;2023-05-27T05:11:18;6.93;;;4.97;;
9716;SDS011;4897;43.570;27.832;2023-05-27T05:13:45;7.03;;;4.82;;
9716;SDS011;4897;43.570;27.832;2023-05-27T05:16:12;7.25;;;4.82;;
9716;SDS011;4897;43.570;27.832;2023-05-27T05:18:38;9.50;;;4.97;;
9716;SDS011;4897;43.570;27.832;2023-05-27T05:21:05;7.68;;;5.72;;
9716;SDS011;4897;43.570;27.832;2023-05-27T05:23:34;6.30;;;5.25;;
9716;SDS011;4897;43.570;27.832;2023-05-27T05:26:01;6.03;;;5.05;;
9716;SDS011;4897;43.570;27.832;2023-05-27T05:28:32;8.50;;;5.00;;
9716;SDS011;4897;43.570;27.832;2023-05-27T05:31:00;9.40;;;5.40;;
9716;SDS011;4897;43.570;27.832;2023-05-27T05:33:28;8.77;;;5.30;;
9716;SDS011;4897;43.570;27.832;2023-05-27T05:35:55;6.93;;;5.45;;
9716;SDS011;4897;43.570;27.832;2023-05-27T05:38:25;16.27;;;5.82;;
9716;SDS011;4897;43.570;27.832;2023-05-27T05:40:53;7.20;;;5.40;;
9716;SDS011;4897;43.570;27.832;2023-05-27T05:43:20;9.77;;;5.70;;
9716;SDS011;4897;43.570;27.832;2023-05-27T05:45:47;12.65;;;6.75;;
9716;SDS011;4897;43.570;27.832;2023-05-27T05:48:14;13.45;;;6.95;;
9716;SDS011;4897;43.570;27.832;2023-05-27T05:50:41;11.55;;;6.32;;
9716;SDS011;4897;43.570;27.832;2023-05-27T05:53:08;16.52;;;6.60;;
9716;SDS011;4897;43.570;27.832;2023-05-27T05:55:36;11.50;;;6.30;;
9716;SDS011;4897;43.570;27.832;2023-05-27T05:58:04;8.25;;;5.82;;
9716;SDS011;4897;43.570;27.832;2023-05-27T06:00:31;16.50;;;6.20;;
9716;SDS011;4897;43.570;27.832;2023-05-27T06:02:58;15.27;;;6.50;;
9716;SDS011;4897;43.570;27.832;2023-05-27T06:05:25;8.70;;;6.22;;
9716;SDS011;4897;43.570;27.832;2023-05-27T06:07:52;9.32;;;5.88;;
9716;SDS011;4897;43.570;27.832;2023-05-27T06:10:19;8.65;;;5.60;;
9716;SDS011;4897;43.570;27.832;2023-05-27T06:12:46;13.32;;;6.18;;
9716;SDS011;4897;43.570;27.832;2023-05-27T06:15:14;10.27;;;6.47;;
9716;SDS011;4897;43.570;27.832;2023-05-27T06:17:41;11.15;;;6.07;;
9716;SDS011;4897;43.570;27.832;2023-05-27T06:20:09;7.75;;;6.10;;
9716;SDS011;4897;43.570;27.832;2023-05-27T06:22:36;7.53;;;5.80;;
9716;SDS011;4897;43.570;27.832;2023-05-27T06:25:04;8.13;;;6.03;;
9716;SDS011;4897;43.570;27.832;2023-05-27T06:27:31;8.27;;;5.63;;
9716;SDS011;4897;43.570;27.832;2023-05-27T06:29:58;10.70;;;6.15;;
9716;SDS011;4897;43.570;27.832;2023-05-27T06:32:27;9.63;;;6.38;;
9716;SDS011;4897;43.570;27.832;2023-05-27T06:34:53;11.70;;;7.05;;
9716;SDS011;4897;43.570;27.832;2023-05-27T06:37:20;9.00;;;5.38;;
9716;SDS011;4897;43.570;27.832;2023-05-27T06:39:47;8.70;;;5.80;;
9716;SDS011;4897;43.570;27.832;2023-05-27T06:42:14;6.90;;;5.47;;
9716;SDS011;4897;43.570;27.832;2023-05-27T06:44:41;8.32;;;5.85;;
9716;SDS011;4897;43.570;27.832;2023-05-27T06:47:08;12.30;;;5.60;;
9716;SDS011;4897;43.570;27.832;2023-05-27T06:49:37;8.63;;;5.82;;
9716;SDS011;4897;43.570;27.832;2023-05-27T06:52:04;9.50;;;5.40;;
9716;SDS011;4897;43.570;27.832;2023-05-27T06:54:31;12.40;;;5.82;;
9716;SDS011;4897;43.570;27.832;2023-05-27T06:56:58;18.15;;;6.43;;
9716;SDS011;4897;43.570;27.832;2023-05-27T06:59:26;10.60;;;5.65;;
9716;SDS011;4897;43.570;27.832;2023-05-27T07:01:53;10.73;;;5.38;;
9716;SDS011;4897;43.570;27.832;2023-05-27T07:04:21;7.82;;;5.40;;
9716;SDS011;4897;43.570;27.832;2023-05-27T07:06:49;9.68;;;5.07;;
9716;SDS011;4897;43.570;27.832;2023-05-27T07:09:22;9.77;;;5.40;;
9716;SDS011;4897;43.570;27.832;2023-05-27T07:11:51;7.93;;;5.20;;
9716;SDS011;4897;43.570;27.832;2023-05-27T07:14:18;11.10;;;5.97;;
9716;SDS011;4897;43.570;27.832;2023-05-27T07:16:45;9.25;;;5.05;;
9716;SDS011;4897;43.570;27.832;2023-05-27T07:19:12;7.38;;;5.35;;
9716;SDS011;4897;43.570;27.832;2023-05-27T07:21:39;11.80;;;5.75;;
9716;SDS011;4897;43.570;27.832;2023-05-27T07:24:08;8.52;;;5.50;;
9716;SDS011;4897;43.570;27.832;2023-05-27T07:26:35;15.48;;;5.78;;
9716;SDS011;4897;43.570;27.832;2023-05-27T07:29:03;7.40;;;5.60;;
9716;SDS011;4897;43.570;27.832;2023-05-27T07:31:30;11.50;;;6.22;;
9716;SDS011;4897;43.570;27.832;2023-05-27T07:33:57;9.73;;;5.65;;
9716;SDS011;4897;43.570;27.832;2023-05-27T07:36:24;8.15;;;5.95;;
9716;SDS011;4897;43.570;27.832;2023-05-27T07:38:51;11.57;;;6.18;;
9716;SDS011;4897;43.570;27.832;2023-05-27T07:41:20;13.95;;;6.50;;
9716;SDS011;4897;43.570;27.832;2023-05-27T07:43:47;13.13;;;6.45;;
9716;SDS011;4897;43.570;27.832;2023-05-27T07:46:14;16.08;;;6.57;;
9716;SDS011;4897;43.570;27.832;2023-05-27T07:48:41;6.80;;;5.47;;
9716;SDS011;4897;43.570;27.832;2023-05-27T07:51:07;20.15;;;7.40;;
9716;SDS011;4897;43.570;27.832;2023-05-27T07:53:36;13.77;;;6.95;;
9716;SDS011;4897;43.570;27.832;2023-05-27T07:56:03;14.30;;;6.85;;
9716;SDS011;4897;43.570;27.832;2023-05-27T07:58:32;9.43;;;6.20;;
9716;SDS011;4897;43.570;27.832;2023-05-27T08:00:58;7.18;;;6.30;;
9716;SDS011;4897;43.570;27.832;2023-05-27T08:03:25;12.50;;;7.00;;
9716;SDS011;4897;43.570;27.832;2023-05-27T08:05:52;15.10;;;8.68;;
9716;SDS011;4897;43.570;27.832;2023-05-27T08:08:20;10.38;;;6.78;;
9716;SDS011;4897;43.570;27.832;2023-05-27T08:10:47;11.20;;;6.72;;
9716;SDS011;4897;43.570;27.832;2023-05-27T08:13:14;10.40;;;7.18;;
9716;SDS011;4897;43.570;27.832;2023-05-27T08:15:42;10.25;;;6.68;;
9716;SDS011;4897;43.570;27.832;2023-05-27T08:18:09;10.55;;;7.05;;
9716;SDS011;4897;43.570;27.832;2023-05-27T08:20:36;10.65;;;7.80;;
9716;SDS011;4897;43.570;27.832;2023-05-27T08:23:03;9.55;;;5.82;;
9716;SDS011;4897;43.570;27.832;2023-05-27T08:25:30;11.63;;;5.53;;
9716;SDS011;4897;43.570;27.832;2023-05-27T08:27:57;9.80;;;6.00;;
9716;SDS011;4897;43.570;27.832;2023-05-27T08:30:26;7.07;;;5.10;;
9716;SDS011;4897;43.570;27.832;2023-05-27T08:32:55;6.47;;;4.65;;
9716;SDS011;4897;43.570;27.832;2023-05-27T08:35:22;6.97;;;4.10;;
9716;SDS011;4897;43.570;27.832;2023-05-27T08:37:49;9.90;;;3.92;;
9716;SDS011;4897;43.570;27.832;2023-05-27T08:40:17;6.28;;;3.83;;
9716;SDS011;4897;43.570;27.832;2023-05-27T08:42:45;6.70;;;4.07;;
9716;SDS011;4897;43.570;27.832;2023-05-27T08:45:12;6.38;;;5.45;;
9716;SDS011;4897;43.570;27.832;2023-05-27T08:47:40;6.32;;;5.57;;
9716;SDS011;4897;43.570;27.832;2023-05-27T08:50:09;6.88;;;5.72;;
9716;SDS011;4897;43.570;27.832;2023-05-27T08:52:39;7.82;;;4.70;;
9716;SDS011;4897;43.570;27.832;2023-05-27T08:55:12;6.95;;;4.50;;
9716;SDS011;4897;43.570;27.832;2023-05-27T08:57:42;8.25;;;4.50;;
9716;SDS011;4897;43.570;27.832;2023-05-27T09:00:13;4.18;;;3.72;;
9716;SDS011;4897;43.570;27.832;2023-05-27T09:02:40;7.63;;;3.53;;
9716;SDS011;4897;43.570;27.832;2023-05-27T09:05:09;6.05;;;3.97;;
9716;SDS011;4897;43.570;27.832;2023-05-27T09:07:37;7.38;;;3.63;;
9716;SDS011;4897;43.570;27.832;2023-05-27T09:10:05;6.95;;;3.80;;
9716;SDS011;4897;43.570;27.832;2023-05-27T09:12:33;5.68;;;3.50;;
9716;SDS011;4897;43.570;27.832;2023-05-27T09:15:00;4.57;;;3.35;;
9716;SDS011;4897;43.570;27.832;2023-05-27T09:17:29;4.38;;;3.40;;
9716;SDS011;4897;43.570;27.832;2023-05-27T09:19:56;12.02;;;3.55;;
9716;SDS011;4897;43.570;27.832;2023-05-27T09:22:26;6.60;;;3.70;;
9716;SDS011;4897;43.570;27.832;2023-05-27T09:24:55;6.82;;;3.45;;
9716;SDS011;4897;43.570;27.832;2023-05-27T09:27:29;5.15;;;3.30;;
9716;SDS011;4897;43.570;27.832;2023-05-27T09:29:58;6.25;;;3.47;;
9716;SDS011;4897;43.570;27.832;2023-05-27T09:32:33;4.00;;;3.50;;
9716;SDS011;4897;43.570;27.832;2023-05-27T09:35:00;9.45;;;3.42;;
9716;SDS011;4897;43.570;27.832;2023-05-27T09:37:33;6.18;;;4.10;;
9716;SDS011;4897;43.570;27.832;2023-05-27T09:40:04;5.93;;;3.30;;
9716;SDS011;4897;43.570;27.832;2023-05-27T09:42:41;5.72;;;3.28;;
9716;SDS011;4897;43.570;27.832;2023-05-27T09:45:10;6.22;;;3.10;;
9716;SDS011;4897;43.570;27.832;2023-05-27T09:47:39;4.30;;;2.65;;
9716;SDS011;4897;43.570;27.832;2023-05-27T09:50:07;4.50;;;2.95;;
9716;SDS011;4897;43.570;27.832;2023-05-27T09:52:37;3.97;;;3.05;;
9716;SDS011;4897;43.570;27.832;2023-05-27T09:55:06;6.18;;;3.65;;
9716;SDS011;4897;43.570;27.832;2023-05-27T09:57:34;5.32;;;3.30;;
9716;SDS011;4897;43.570;27.832;2023-05-27T10:00:02;4.35;;;3.05;;
9716;SDS011;4897;43.570;27.832;2023-05-27T10:02:36;10.63;;;3.75;;
9716;SDS011;4897;43.570;27.832;2023-05-27T10:05:04;7.15;;;3.50;;
9716;SDS011;4897;43.570;27.832;2023-05-27T10:07:34;3.80;;;3.40;;
9716;SDS011;4897;43.570;27.832;2023-05-27T10:10:06;3.63;;;2.97;;
9716;SDS011;4897;43.570;27.832;2023-05-27T10:12:37;7.85;;;3.33;;
9716;SDS011;4897;43.570;27.832;2023-05-27T10:15:06;9.13;;;3.63;;
9716;SDS011;4897;43.570;27.832;2023-05-27T10:17:46;6.57;;;3.22;;
9716;SDS011;4897;43.570;27.832;2023-05-27T10:20:23;3.75;;;3.35;;
9716;SDS011;4897;43.570;27.832;2023-05-27T10:22:52;9.13;;;3.45;;
9716;SDS011;4897;43.570;27.832;2023-05-27T10:25:19;4.57;;;3.03;;
9716;SDS011;4897;43.570;27.832;2023-05-27T10:27:46;4.63;;;3.60;;
9716;SDS011;4897;43.570;27.832;2023-05-27T10:30:14;8.88;;;3.47;;
9716;SDS011;4897;43.570;27.832;2023-05-27T10:32:42;4.15;;;3.22;;
9716;SDS011;4897;43.570;27.832;2023-05-27T10:35:10;3.85;;;2.85;;
9716;SDS011;4897;43.570;27.832;2023-05-27T10:37:37;4.05;;;3.17;;
9716;SDS011;4897;43.570;27.832;2023-05-27T10:40:06;11.05;;;3.58;;
9716;SDS011;4897;43.570;27.832;2023-05-27T10:42:36;7.07;;;3.63;;
9716;SDS011;4897;43.570;27.832;2023-05-27T10:45:04;7.50;;;3.92;;
9716;SDS011;4897;43.570;27.832;2023-05-27T10:47:34;7.25;;;4.18;;
9716;SDS011;4897;43.570;27.832;2023-05-27T10:50:09;8.15;;;4.57;;
9716;SDS011;4897;43.570;27.832;2023-05-27T10:52:38;11.40;;;5.15;;
9716;SDS011;4897;43.570;27.832;2023-05-27T10:55:07;9.35;;;5.28;;
9716;SDS011;4897;43.570;27.832;2023-05-27T10:57:34;8.25;;;4.65;;
9716;SDS011;4897;43.570;27.832;2023-05-27T11:00:02;9.75;;;4.40;;
9716;SDS011;4897;43.570;27.832;2023-05-27T11:02:34;13.85;;;5.38;;
9716;SDS011;4897;43.570;27.832;2023-05-27T11:05:08;11.50;;;5.43;;
9716;SDS011;4897;43.570;27.832;2023-05-27T11:07:36;10.35;;;5.10;;
9716;SDS011;4897;43.570;27.832;2023-05-27T11:10:11;7.68;;;5.07;;
9716;SDS011;4897;43.570;27.832;2023-05-27T11:12:42;8.27;;;5.55;;
9716;SDS011;4897;43.570;27.832;2023-05-27T11:15:10;11.32;;;5.88;;
9716;SDS011;4897;43.570;27.832;2023-05-27T11:17:37;12.98;;;7.53;;
9716;SDS011;4897;43.570;27.832;2023-05-27T11:20:04;11.07;;;7.43;;
9716;SDS011;4897;43.570;27.832;2023-05-27T11:22:32;8.30;;;6.65;;
9716;SDS011;4897;43.570;27.832;2023-05-27T11:25:02;9.30;;;7.88;;
9716;SDS011;4897;43.570;27.832;2023-05-27T11:27:36;10.63;;;7.18;;
9716;SDS011;4897;43.570;27.832;2023-05-27T11:30:07;10.73;;;7.80;;
9716;SDS011;4897;43.570;27.832;2023-05-27T11:32:36;14.52;;;7.07;;
9716;SDS011;4897;43.570;27.832;2023-05-27T11:35:04;9.93;;;7.18;;
9716;SDS011;4897;43.570;27.832;2023-05-27T11:37:38;10.75;;;7.13;;
9716;SDS011;4897;43.570;27.832;2023-05-27T11:40:09;6.72;;;5.78;;
9716;SDS011;4897;43.570;27.832;2023-05-27T11:42:43;7.97;;;6.70;;
9716;SDS011;4897;43.570;27.832;2023-05-27T11:45:14;12.32;;;7.20;;
9716;SDS011;4897;43.570;27.832;2023-05-27T11:47:42;7.57;;;5.78;;
9716;SDS011;4897;43.570;27.832;2023-05-27T11:50:10;7.43;;;6.40;;
9716;SDS011;4897;43.570;27.832;2023-05-27T11:52:46;7.15;;;6.03;;
9716;SDS011;4897;43.570;27.832;2023-05-27T11:55:16;7.63;;;6.53;;
9716;SDS011;4897;43.570;27.832;2023-05-27T11:57:45;8.85;;;6.97;;
9716;SDS011;4897;43.570;27.832;2023-05-27T12:00:12;5.40;;;4.80;;
9716;SDS011;4897;43.570;27.832;2023-05-27T12:02:40;6.68;;;5.80;;
9716;SDS011;4897;43.570;27.832;2023-05-27T12:05:08;6.60;;;5.88;;
9716;SDS011;4897;43.570;27.832;2023-05-27T12:07:35;9.25;;;6.28;;
9716;SDS011;4897;43.570;27.832;2023-05-27T12:10:06;9.02;;;6.75;;
9716;SDS011;4897;43.570;27.832;2023-05-27T12:12:35;8.75;;;6.43;;
9716;SDS011;4897;43.570;27.832;2023-05-27T12:15:05;8.38;;;6.45;;
9716;SDS011;4897;43.570;27.832;2023-05-27T12:17:32;8.55;;;5.88;;
9716;SDS011;4897;43.570;27.832;2023-05-27T12:19:59;11.45;;;6.18;;
9716;SDS011;4897;43.570;27.832;2023-05-27T12:22:27;7.85;;;5.50;;
9716;SDS011;4897;43.570;27.832;2023-05-27T12:24:54;10.43;;;5.88;;
9716;SDS011;4897;43.570;27.832;2023-05-27T12:27:21;9.80;;;6.35;;
9716;SDS011;4897;43.570;27.832;2023-05-27T12:29:48;6.72;;;5.50;;
9716;SDS011;4897;43.570;27.832;2023-05-27T12:32:16;9.13;;;5.80;;
9716;SDS011;4897;43.570;27.832;2023-05-27T12:34:43;5.97;;;5.22;;
9716;SDS011;4897;43.570;27.832;2023-05-27T12:37:10;6.75;;;5.72;;
9716;SDS011;4897;43.570;27.832;2023-05-27T12:39:37;7.75;;;6.30;;
9716;SDS011;4897;43.570;27.832;2023-05-27T12:42:04;8.13;;;6.22;;
9716;SDS011;4897;43.570;27.832;2023-05-27T12:44:32;10.60;;;6.38;;
9716;SDS011;4897;43.570;27.832;2023-05-27T12:47:01;8.70;;;6.10;;
9716;SDS011;4897;43.570;27.832;2023-05-27T12:49:30;10.60;;;7.70;;
9716;SDS011;4897;43.570;27.832;2023-05-27T12:51:59;11.25;;;6.43;;
9716;SDS011;4897;43.570;27.832;2023-05-27T12:54:28;8.52;;;6.35;;
9716;SDS011;4897;43.570;27.832;2023-05-27T12:56:55;9.27;;;6.03;;
9716;SDS011;4897;43.570;27.832;2023-05-27T12:59:22;8.55;;;6.90;;
9716;SDS011;4897;43.570;27.832;2023-05-27T13:01:52;11.30;;;7.35;;
9716;SDS011;4897;43.570;27.832;2023-05-27T13:04:19;9.27;;;7.15;;
9716;SDS011;4897;43.570;27.832;2023-05-27T13:06:47;11.07;;;7.65;;
9716;SDS011;4897;43.570;27.832;2023-05-27T13:09:14;8.93;;;7.43;;
9716;SDS011;4897;43.570;27.832;2023-05-27T13:11:43;10.27;;;7.85;;
9716;SDS011;4897;43.570;27.832;2023-05-27T13:14:10;10.38;;;6.43;;
9716;SDS011;4897;43.570;27.832;2023-05-27T13:16:37;11.90;;;8.63;;
9716;SDS011;4897;43.570;27.832;2023-05-27T13:19:04;7.00;;;5.40;;
9716;SDS011;4897;43.570;27.832;2023-05-27T13:21:31;7.55;;;5.00;;
9716;SDS011;4897;43.570;27.832;2023-05-27T13:24:00;9.55;;;6.80;;
9716;SDS011;4897;43.570;27.832;2023-05-27T13:26:27;12.55;;;6.80;;
9716;SDS011;4897;43.570;27.832;2023-05-27T13:28:58;16.48;;;9.90;;
9716;SDS011;4897;43.570;27.832;2023-05-27T13:31:25;12.65;;;7.40;;
9716;SDS011;4897;43.570;27.832;2023-05-27T13:33:52;10.02;;;7.07;;
9716;SDS011;4897;43.570;27.832;2023-05-27T13:36:19;9.57;;;6.57;;
9716;SDS011;4897;43.570;27.832;2023-05-27T13:38:46;11.25;;;7.88;;
9716;SDS011;4897;43.570;27.832;2023-05-27T13:41:15;6.97;;;5.30;;
9716;SDS011;4897;43.570;27.832;2023-05-27T13:43:42;5.00;;;4.50;;
9716;SDS011;4897;43.570;27.832;2023-05-27T13:46:09;7.82;;;5.25;;
9716;SDS011;4897;43.570;27.832;2023-05-27T13:48:35;7.65;;;4.55;;
9716;SDS011;4897;43.570;27.832;2023-05-27T13:51:02;4.78;;;4.05;;
9716;SDS011;4897;43.570;27.832;2023-05-27T13:53:30;6.00;;;4.80;;
9716;SDS011;4897;43.570;27.832;2023-05-27T13:55:57;7.15;;;4.72;;
9716;SDS011;4897;43.570;27.832;2023-05-27T13:58:29;9.65;;;6.00;;
9716;SDS011;4897;43.570;27.832;2023-05-27T14:00:55;8.27;;;4.95;;
9716;SDS011;4897;43.570;27.832;2023-05-27T14:03:23;6.97;;;5.47;;
9716;SDS011;4897;43.570;27.832;2023-05-27T14:05:50;6.32;;;3.83;;
9716;SDS011;4897;43.570;27.832;2023-05-27T14:08:17;5.47;;;3.95;;
9716;SDS011;4897;43.570;27.832;2023-05-27T14:10:44;7.20;;;4.15;;
9716;SDS011;4897;43.570;27.832;2023-05-27T14:13:10;4.97;;;3.97;;
9716;SDS011;4897;43.570;27.832;2023-05-27T14:15:39;4.88;;;4.38;;
9716;SDS011;4897;43.570;27.832;2023-05-27T14:18:06;8.18;;;5.40;;
9716;SDS011;4897;43.570;27.832;2023-05-27T14:20:33;4.63;;;3.53;;
9716;SDS011;4897;43.570;27.832;2023-05-27T14:23:00;5.68;;;3.50;;
9716;SDS011;4897;43.570;27.832;2023-05-27T14:25:29;6.25;;;4.30;;
9716;SDS011;4897;43.570;27.832;2023-05-27T14:27:56;5.50;;;3.97;;
9716;SDS011;4897;43.570;27.832;2023-05-27T14:30:26;6.45;;;4.30;;
9716;SDS011;4897;43.570;27.832;2023-05-27T14:32:57;7.05;;;4.22;;
9716;SDS011;4897;43.570;27.832;2023-05-27T14:35:27;5.75;;;4.53;;
9716;SDS011;4897;43.570;27.832;2023-05-27T14:37:53;7.05;;;5.22;;
9716;SDS011;4897;43.570;27.832;2023-05-27T14:40:22;10.32;;;5.90;;
9716;SDS011;4897;43.570;27.832;2023-05-27T14:42:49;8.23;;;6.07;;
9716;SDS011;4897;43.570;27.832;2023-05-27T14:45:16;6.93;;;5.78;;
9716;SDS011;4897;43.570;27.832;2023-05-27T14:47:45;9.00;;;5.28;;
9716;SDS011;4897;43.570;27.832;2023-05-27T14:50:14;8.32;;;6.00;;
9716;SDS011;4897;43.570;27.832;2023-05-27T14:52:41;6.00;;;5.20;;
9716;SDS011;4897;43.570;27.832;2023-05-27T14:55:08;5.63;;;4.97;;
9716;SDS011;4897;43.570;27.832;2023-05-27T14:57:35;10.07;;;4.93;;
9716;SDS011;4897;43.570;27.832;2023-05-27T15:00:02;8.35;;;4.85;;
9716;SDS011;4897;43.570;27.832;2023-05-27T15:02:33;6.63;;;2.63;;